Time;durP1;ratioP1;P1;durP2;ratioP2;P2;SDS_P1;SDS_P2;PMS_P1;PMS_P2;Temp;Humidity;BMP_temperature;BMP_pressure;BME280_temperature;BME280_humidity;BME280_pressure;Samples;Min_cycle;Max_cycle;Signal;HPM_P1;HPM_P2
2022/10/08 00:00:28;;;;;;;;;;;;;;;;;;5030488;28;20011;-59
2022/10/08 00:02:53;;;;;;;;;;;;;;;;;;5031240;28;20092;-59
2022/10/08 00:05:19;;;;;;;;;;;;;;;;;;5028047;28;19920;-59
2022/10/08 00:07:44;;;;;;;;;;;;;;;;;;5030000;28;20462;-59
2022/10/08 00:10:09;;;;;;;;;;;;;;;;;;5029941;28;19917;-59
2022/10/08 00:12:35;;;;;;;;;;;;;;;;;;5027930;28;19931;-59
2022/10/08 00:15:00;;;;;;;;;;;;;;;;;;5029706;28;19913;-59
2022/10/08 00:17:25;;;;;;;;;;;;;;;;;;5029629;28;20011;-59
2022/10/08 00:19:53;;;;;;;;;;;;;;;;;;5029439;28;20788;-59
2022/10/08 00:22:18;;;;;;;;;;;;;;;;;;5025823;28;19913;-59
2022/10/08 00:24:45;;;;;;;;;;;;;;;;;;5029137;28;20389;-59
2022/10/08 00:27:11;;;;;;;;;;;;;;;;;;5028975;28;20366;-59
2022/10/08 00:29:36;;;;;;;;;;;;;;;;;;5029388;28;19913;-59
2022/10/08 00:32:01;;;;;;;;;;;;;;;;;;5028908;28;20051;-59
2022/10/08 00:34:27;;;;;;;;;;;;;;;;;;5032692;28;20310;-59
2022/10/08 00:36:53;;;;;;;;;;;;;;;;;;5028476;28;19921;-59
2022/10/08 00:39:19;;;;;;;;;;;;;;;;;;5025546;28;19999;-59
2022/10/08 00:41:46;;;;;;;;;;;;;;;;;;5029735;28;19912;-59
2022/10/08 00:44:30;;;;;;;;;;;;;;;;;;5029751;28;19913;-59
2022/10/08 00:46:55;;;;;;;;;;;;;;;;;;5028209;28;19924;-59
2022/10/08 00:49:21;;;;;;;;;;;;;;;;;;5028704;28;19920;-59
2022/10/08 00:51:51;;;;;;;;;;;;;;;;;;5028485;28;19975;-59
2022/10/08 00:54:17;;;;;;;;;;;;;;;;;;5029029;28;19975;-59
2022/10/08 00:56:43;;;;;;;;;;;;;;;;;;5023881;28;19921;-59
2022/10/08 00:59:09;;;;;;;;;;;;;;;;;;5029498;28;19967;-59
2022/10/08 01:01:35;;;;;;;;;;;;;;;;;;5028363;28;20150;-59
2022/10/08 01:04:03;;;;;;;;;;;;;;;;;;5029163;28;19913;-59
2022/10/08 01:06:37;;;;;;;;;;;;;;;;;;5028443;28;19912;-59
2022/10/08 01:09:14;;;;;;;;;;;;;;;;;;5027021;28;20004;-59
2022/10/08 01:11:58;;;;;;;;;;;;;;;;;;5027390;28;19962;-59
2022/10/08 01:14:43;;;;;;;;;;;;;;;;;;5026509;28;19913;-59
2022/10/08 01:17:35;;;;;;;;;;;;;;;;;;5031080;28;19956;-59
2022/10/08 01:20:03;;;;;;;;;;;;;;;;;;5030619;28;19948;-59
2022/10/08 01:22:35;;;;;;;;;;;;;;;;;;5031738;28;19924;-59
2022/10/08 01:25:32;;;;;;;;;;;;;;;;;;5032112;28;19924;-59
2022/10/08 01:28:00;;;;;;;;;;;;;;;;;;5019195;28;20055;-59
2022/10/08 01:30:26;;;;;;;;;;;;;;;;;;5032256;28;20307;-59
2022/10/08 01:32:56;;;;;;;;;;;;;;;;;;5031900;28;20275;-59
2022/10/08 01:35:33;;;;;;;;;;;;;;;;;;5032184;28;19986;-59
2022/10/08 01:38:01;;;;;;;;;;;;;;;;;;5032087;28;19972;-59
2022/10/08 01:40:33;;;;;;;;;;;;;;;;;;5032605;28;20044;-59
2022/10/08 01:42:59;;;;;;;;;;;;;;;;;;5030749;28;19913;-59
2022/10/08 01:45:31;;;;;;;;;;;;;;;;;;5031285;28;20379;-59
2022/10/08 01:47:57;;;;;;;;;;;;;;;;;;5030952;28;19967;-60
2022/10/08 01:50:29;;;;;;;;;;;;;;;;;;5029680;28;19917;-59
2022/10/08 01:52:57;;;;;;;;;;;;;;;;;;5031477;28;19979;-59
2022/10/08 01:55:28;;;;;;;;;;;;;;;;;;5031990;28;19912;-60
2022/10/08 01:57:57;;;;;;;;;;;;;;;;;;5032939;28;19925;-59
2022/10/08 02:00:22;;;;;;;;;;;;;;;;;;5039176;28;20357;-59
2022/10/08 02:02:47;;;;;;;;;;;;;;;;;;5031395;28;19997;-59
2022/10/08 02:05:12;;;;;;;;;;;;;;;;;;5029962;28;19924;-59
2022/10/08 02:07:41;;;;;;;;;;;;;;;;;;5030397;28;19923;-59
2022/10/08 02:10:13;;;;;;;;;;;;;;;;;;5028892;28;19971;-59
2022/10/08 02:12:39;;;;;;;;;;;;;;;;;;5027782;28;19912;-59
2022/10/08 02:15:06;;;;;;;;;;;;;;;;;;5033850;28;20348;-59
2022/10/08 02:17:31;;;;;;;;;;;;;;;;;;5031231;28;19929;-59
2022/10/08 02:20:02;;;;;;;;;;;;;;;;;;5031986;28;20661;-59
2022/10/08 02:22:31;;;;;;;;;;;;;;;;;;5030940;28;19940;-59
2022/10/08 02:24:59;;;;;;;;;;;;;;;;;;5027359;28;20015;-59
2022/10/08 02:27:54;;;;;;;;;;;;;;;;;;5030145;28;20271;-59
2022/10/08 02:30:20;;;;;;;;;;;;;;;;;;4985261;28;19976;-59
2022/10/08 02:33:01;;;;;;;;;;;;;;;;;;5030669;28;19917;-59
2022/10/08 02:35:31;;;;;;;;;;;;;;;;;;5027666;28;19920;-59
2022/10/08 02:38:00;;;;;;;;;;;;;;;;;;5031549;28;20019;-59
2022/10/08 02:40:26;;;;;;;;;;;;;;;;;;5031101;28;19916;-59
2022/10/08 02:42:54;;;;;;;;;;;;;;;;;;5030649;28;19924;-59
2022/10/08 02:45:19;;;;;;;;;;;;;;;;;;5030819;28;19955;-59
2022/10/08 02:47:47;;;;;;;;;;;;;;;;;;5031138;28;19964;-59
2022/10/08 02:50:16;;;;;;;;;;;;;;;;;;5032173;28;20308;-59
2022/10/08 02:52:43;;;;;;;;;;;;;;;;;;5027392;28;19916;-59
2022/10/08 02:55:21;;;;;;;;;;;;;;;;;;5030756;28;19917;-59
2022/10/08 02:57:52;;;;;;;;;;;;;;;;;;5030736;28;19917;-59
2022/10/08 03:00:17;;;;;;;;;;;;;;;;;;5030280;28;19952;-59
2022/10/08 03:02:47;;;;;;;;;;;;;;;;;;5030224;28;19920;-59
2022/10/08 03:05:15;;;;;;;;;;;;;;;;;;5032794;28;19917;-59
2022/10/08 03:07:41;;;;;;;;;;;;;;;;;;5031075;28;19925;-59
2022/10/08 03:10:07;;;;;;;;;;;;;;;;;;5030633;28;19913;-59
2022/10/08 03:12:32;;;;;;;;;;;;;;;;;;5031954;28;20398;-59
2022/10/08 03:14:58;;;;;;;;;;;;;;;;;;5030426;28;19912;-59
2022/10/08 03:17:35;;;;;;;;;;;;;;;;;;5031267;28;19924;-59
2022/10/08 03:20:02;;;;;;;;;;;;;;;;;;5028720;28;20264;-59
2022/10/08 03:22:28;;;;;;;;;;;;;;;;;;5029496;28;20458;-59
2022/10/08 03:24:53;;;;;;;;;;;;;;;;;;5030141;28;19991;-59
2022/10/08 03:27:18;;;;;;;;;;;;;;;;;;5026280;28;19917;-59
2022/10/08 03:29:43;;;;;;;;;;;;;;;;;;5030420;28;19959;-59
2022/10/08 03:32:09;;;;;;;;;;;;;;;;;;5028747;28;20469;-59
2022/10/08 03:34:34;;;;;;;;;;;;;;;;;;5029030;28;19913;-59
2022/10/08 03:36:59;;;;;;;;;;;;;;;;;;5029899;28;19928;-59
2022/10/08 03:39:24;;;;;;;;;;;;;;;;;;5031287;28;19923;-59
2022/10/08 03:41:50;;;;;;;;;;;;;;;;;;5029530;28;19913;-58
2022/10/08 03:44:15;;;;;;;;;;;;;;;;;;5030720;28;19939;-59
2022/10/08 03:46:40;;;;;;;;;;;;;;;;;;5029966;28;19920;-59
2022/10/08 03:49:05;;;;;;;;;;;;;;;;;;5029937;28;20263;-59
2022/10/08 03:51:31;;;;;;;;;;;;;;;;;;5028817;28;20011;-59
2022/10/08 03:53:56;;;;;;;;;;;;;;;;;;5029916;28;20290;-59
2022/10/08 03:56:24;;;;;;;;;;;;;;;;;;5030356;28;19924;-59
2022/10/08 03:59:08;;;;;;;;;;;;;;;;;;5029640;28;19912;-59
2022/10/08 04:01:33;;;;;;;;;;;;;;;;;;5026679;28;19917;-59
2022/10/08 04:03:58;;;;;;;;;;;;;;;;;;5028464;28;19966;-59
2022/10/08 04:06:24;;;;;;;;;;;;;;;;;;5030045;28;19912;-59
2022/10/08 04:08:49;;;;;;;;;;;;;;;;;;5029857;28;19913;-59
2022/10/08 04:11:16;;;;;;;;;;;;;;;;;;5030034;28;20445;-59
2022/10/08 04:13:41;;;;;;;;;;;;;;;;;;5030136;28;19913;-59
2022/10/08 04:16:11;;;;;;;;;;;;;;;;;;5024516;28;19958;-59
2022/10/08 04:18:37;;;;;;;;;;;;;;;;;;5029557;28;20294;-59
2022/10/08 04:21:04;;;;;;;;;;;;;;;;;;5029912;28;19917;-59
2022/10/08 04:23:33;;;;;;;;;;;;;;;;;;5029476;28;20341;-59
2022/10/08 04:25:58;;;;;;;;;;;;;;;;;;5027541;28;20549;-59
2022/10/08 04:28:23;;;;;;;;;;;;;;;;;;5030237;28;19917;-59
2022/10/08 04:30:59;;;;;;;;;;;;;;;;;;5029292;28;19913;-59
2022/10/08 04:33:25;;;;;;;;;;;;;;;;;;5025800;28;19913;-59
2022/10/08 04:35:51;;;;;;;;;;;;;;;;;;5028918;28;19919;-59
2022/10/08 04:38:16;;;;;;;;;;;;;;;;;;5028439;28;20375;-59
2022/10/08 04:40:41;;;;;;;;;;;;;;;;;;5024560;28;19913;-59
2022/10/08 04:43:06;;;;;;;;;;;;;;;;;;5028392;28;20271;-59
2022/10/08 04:45:32;;;;;;;;;;;;;;;;;;5029510;28;20399;-59
2022/10/08 04:47:57;;;;;;;;;;;;;;;;;;5029409;28;19913;-59
2022/10/08 04:50:22;;;;;;;;;;;;;;;;;;5035660;28;19947;-59
2022/10/08 04:52:47;;;;;;;;;;;;;;;;;;5031093;28;20437;-59
2022/10/08 04:55:13;;;;;;;;;;;;;;;;;;5031902;28;20180;-59
2022/10/08 04:57:38;;;;;;;;;;;;;;;;;;5033229;28;20020;-59
2022/10/08 05:00:04;;;;;;;;;;;;;;;;;;5033592;28;19949;-59
2022/10/08 05:02:29;;;;;;;;;;;;;;;;;;5036317;28;19963;-59
2022/10/08 05:04:54;;;;;;;;;;;;;;;;;;5032515;28;19917;-62
2022/10/08 05:07:20;;;;;;;;;;;;;;;;;;5033357;28;19944;-64
2022/10/08 05:09:45;;;;;;;;;;;;;;;;;;5033388;28;19924;-63
2022/10/08 05:12:10;;;;;;;;;;;;;;;;;;5032626;28;19985;-64
2022/10/08 05:14:35;;;;;;;;;;;;;;;;;;5035436;28;19917;-64
2022/10/08 05:17:01;;;;;;;;;;;;;;;;;;5031909;28;20224;-62
2022/10/08 05:19:26;;;;;;;;;;;;;;;;;;5033472;28;19920;-64
2022/10/08 05:21:51;;;;;;;;;;;;;;;;;;5034976;28;19913;-64
2022/10/08 05:24:16;;;;;;;;;;;;;;;;;;5032656;28;19913;-64
2022/10/08 05:26:42;;;;;;;;;;;;;;;;;;5032389;28;19913;-64
2022/10/08 05:29:08;;;;;;;;;;;;;;;;;;5032269;28;20016;-62
2022/10/08 05:31:34;;;;;;;;;;;;;;;;;;5031641;28;19917;-61
2022/10/08 05:34:00;;;;;;;;;;;;;;;;;;5032649;28;19913;-63
2022/10/08 05:36:27;;;;;;;;;;;;;;;;;;5030434;28;20008;-62
2022/10/08 05:38:55;;;;;;;;;;;;;;;;;;5032476;28;19917;-65
2022/10/08 05:41:21;;;;;;;;;;;;;;;;;;5032168;28;19975;-64
2022/10/08 05:43:46;;;;;;;;;;;;;;;;;;5032528;28;20387;-64
2022/10/08 05:46:12;;;;;;;;;;;;;;;;;;5032966;28;19959;-65
2022/10/08 05:48:38;;;;;;;;;;;;;;;;;;5031710;28;19917;-63
2022/10/08 05:51:04;;;;;;;;;;;;;;;;;;5032335;28;19913;-63
2022/10/08 05:53:29;;;;;;;;;;;;;;;;;;5031624;28;19919;-58
2022/10/08 05:55:59;;;;;;;;;;;;;;;;;;5028637;28;19917;-57
2022/10/08 05:58:24;;;;;;;;;;;;;;;;;;5030172;28;19960;-63
2022/10/08 06:01:00;;;;;;;;;;;;;;;;;;5030764;28;19940;-63
2022/10/08 06:03:25;;;;;;;;;;;;;;;;;;5031433;28;19928;-61
2022/10/08 06:05:51;;;;;;;;;;;;;;;;;;5031870;28;19913;-63
2022/10/08 06:08:16;;;;;;;;;;;;;;;;;;5032160;28;19920;-64
2022/10/08 06:10:51;;;;;;;;;;;;;;;;;;5030177;28;19924;-62
2022/10/08 06:13:16;;;;;;;;;;;;;;;;;;5028688;28;19924;-62
2022/10/08 06:15:41;;;;;;;;;;;;;;;;;;5030937;28;19913;-62
2022/10/08 06:18:06;;;;;;;;;;;;;;;;;;5032104;28;19917;-61
2022/10/08 06:20:34;;;;;;;;;;;;;;;;;;5031722;28;20436;-61
2022/10/08 06:23:00;;;;;;;;;;;;;;;;;;5031475;28;20032;-63
2022/10/08 06:25:25;;;;;;;;;;;;;;;;;;5031817;28;20466;-62
2022/10/08 06:27:50;;;;;;;;;;;;;;;;;;5031626;28;19909;-62
2022/10/08 06:30:15;;;;;;;;;;;;;;;;;;5030532;28;19913;-63
2022/10/08 06:32:41;;;;;;;;;;;;;;;;;;5028651;28;20386;-61
2022/10/08 06:35:06;;;;;;;;;;;;;;;;;;5030069;28;20039;-62
2022/10/08 06:37:31;;;;;;;;;;;;;;;;;;5028713;28;19917;-62
2022/10/08 06:39:57;;;;;;;;;;;;;;;;;;5030693;28;19952;-63
2022/10/08 06:42:22;;;;;;;;;;;;;;;;;;5031065;28;22107;-63
2022/10/08 06:44:47;;;;;;;;;;;;;;;;;;5031045;28;19960;-63
2022/10/08 06:47:12;;;;;;;;;;;;;;;;;;5030238;28;20286;-64
2022/10/08 06:49:38;;;;;;;;;;;;;;;;;;5031155;28;19974;-63
2022/10/08 06:52:03;;;;;;;;;;;;;;;;;;5030573;28;19960;-64
2022/10/08 06:54:29;;;;;;;;;;;;;;;;;;5031558;28;19916;-62
2022/10/08 06:56:54;;;;;;;;;;;;;;;;;;5030806;28;19912;-64
2022/10/08 06:59:19;;;;;;;;;;;;;;;;;;5031547;28;19913;-63
2022/10/08 07:01:45;;;;;;;;;;;;;;;;;;5031142;28;19921;-64
2022/10/08 07:04:10;;;;;;;;;;;;;;;;;;5031729;28;20387;-63
2022/10/08 07:06:35;;;;;;;;;;;;;;;;;;5030769;28;19972;-61
2022/10/08 07:09:01;;;;;;;;;;;;;;;;;;5031239;28;19921;-62
2022/10/08 07:11:27;;;;;;;;;;;;;;;;;;5028558;28;19913;-63
2022/10/08 07:13:55;;;;;;;;;;;;;;;;;;5030397;28;19913;-64
2022/10/08 07:16:22;;;;;;;;;;;;;;;;;;5030535;28;19912;-64
2022/10/08 07:18:48;;;;;;;;;;;;;;;;;;5031685;28;19998;-63
2022/10/08 07:21:14;;;;;;;;;;;;;;;;;;5031180;28;19952;-63
2022/10/08 07:23:39;;;;;;;;;;;;;;;;;;5030938;28;19981;-63
2022/10/08 07:26:12;;;;;;;;;;;;;;;;;;5028959;28;19928;-63
2022/10/08 07:28:39;;;;;;;;;;;;;;;;;;5035954;28;19959;-63
2022/10/08 07:31:05;;;;;;;;;;;;;;;;;;5030454;28;19935;-64
2022/10/08 07:33:31;;;;;;;;;;;;;;;;;;5029462;28;20402;-63
2022/10/08 07:36:04;;;;;;;;;;;;;;;;;;5030059;28;19920;-61
2022/10/08 07:38:29;;;;;;;;;;;;;;;;;;5030604;28;20428;-63
2022/10/08 07:40:55;;;;;;;;;;;;;;;;;;5030529;28;19917;-63
2022/10/08 07:43:20;;;;;;;;;;;;;;;;;;5029183;28;19975;-62
2022/10/08 07:45:45;;;;;;;;;;;;;;;;;;5030382;28;19913;-63
2022/10/08 07:48:10;;;;;;;;;;;;;;;;;;5031078;28;19913;-64
2022/10/08 07:50:36;;;;;;;;;;;;;;;;;;5029934;28;19913;-62
2022/10/08 07:53:01;;;;;;;;;;;;;;;;;;5031017;28;19991;-62
2022/10/08 07:55:26;;;;;;;;;;;;;;;;;;5030308;28;19932;-63
2022/10/08 07:57:52;;;;;;;;;;;;;;;;;;5028753;28;19924;-61
2022/10/08 08:00:17;;;;;;;;;;;;;;;;;;5029376;28;20298;-63
2022/10/08 08:02:42;;;;;;;;;;;;;;;;;;5027209;28;19960;-63
2022/10/08 08:05:07;;;;;;;;;;;;;;;;;;5029053;28;20367;-62
2022/10/08 08:07:33;;;;;;;;;;;;;;;;;;5030093;28;19912;-64
2022/10/08 08:09:58;;;;;;;;;;;;;;;;;;5029029;28;19959;-63
2022/10/08 08:12:23;;;;;;;;;;;;;;;;;;5028407;28;20268;-64
2022/10/08 08:14:48;;;;;;;;;;;;;;;;;;5028136;28;19913;-64
2022/10/08 08:17:14;;;;;;;;;;;;;;;;;;5029413;28;19971;-63
2022/10/08 08:19:39;;;;;;;;;;;;;;;;;;5029630;28;19920;-63
2022/10/08 08:22:04;;;;;;;;;;;;;;;;;;5024090;28;19916;-62
2022/10/08 08:24:30;;;;;;;;;;;;;;;;;;5027866;28;20306;-64
2022/10/08 08:26:55;;;;;;;;;;;;;;;;;;5025940;28;19968;-62
2022/10/08 08:29:20;;;;;;;;;;;;;;;;;;5029314;28;19913;-62
2022/10/08 08:31:47;;;;;;;;;;;;;;;;;;5028477;28;20188;-63
2022/10/08 08:34:13;;;;;;;;;;;;;;;;;;5029231;28;20012;-62
2022/10/08 08:36:40;;;;;;;;;;;;;;;;;;5028601;28;20379;-62
2022/10/08 08:39:07;;;;;;;;;;;;;;;;;;5028262;28;20003;-64
2022/10/08 08:41:51;;;;;;;;;;;;;;;;;;5028813;28;20382;-62
2022/10/08 08:44:19;;;;;;;;;;;;;;;;;;5028876;28;19975;-64
2022/10/08 08:46:51;;;;;;;;;;;;;;;;;;5028434;28;20379;-63
2022/10/08 08:49:37;;;;;;;;;;;;;;;;;;5030001;28;19912;-62
2022/10/08 08:52:03;;;;;;;;;;;;;;;;;;5018957;28;19912;-63
2022/10/08 08:54:29;;;;;;;;;;;;;;;;;;5031961;28;19920;-63
2022/10/08 08:56:54;;;;;;;;;;;;;;;;;;5028489;28;19917;-62
2022/10/08 08:59:34;;;;;;;;;;;;;;;;;;5029725;28;19913;-63
2022/10/08 09:02:03;;;;;;;;;;;;;;;;;;5028053;28;19917;-63
2022/10/08 09:04:35;;;;;;;;;;;;;;;;;;5028850;28;19948;-63
2022/10/08 09:07:02;;;;;;;;;;;;;;;;;;5027576;28;19912;-63
2022/10/08 09:09:37;;;;;;;;;;;;;;;;;;5029225;28;19962;-63
2022/10/08 09:12:10;;;;;;;;;;;;;;;;;;5028386;28;19924;-64
2022/10/08 09:14:41;;;;;;;;;;;;;;;;;;5028459;28;19920;-63
2022/10/08 09:17:14;;;;;;;;;;;;;;;;;;5027776;28;20353;-64
2022/10/08 09:19:40;;;;;;;;;;;;;;;;;;5028627;28;19913;-63
2022/10/08 09:22:25;;;;;;;;;;;;;;;;;;5028643;28;19924;-63
2022/10/08 09:24:57;;;;;;;;;;;;;;;;;;5029285;28;20193;-62
2022/10/08 09:27:22;;;;;;;;;;;;;;;;;;5029066;28;19912;-63
2022/10/08 09:29:47;;;;;;;;;;;;;;;;;;5028431;28;20394;-63
2022/10/08 09:32:14;;;;;;;;;;;;;;;;;;5028322;28;19913;-61
2022/10/08 09:34:39;;;;;;;;;;;;;;;;;;5028925;28;19913;-62
2022/10/08 09:37:11;;;;;;;;;;;;;;;;;;5029612;28;19927;-63
2022/10/08 09:39:37;;;;;;;;;;;;;;;;;;5032514;28;19927;-64
2022/10/08 09:42:02;;;;;;;;;;;;;;;;;;5031081;28;19913;-64
2022/10/08 09:44:37;;;;;;;;;;;;;;;;;;5032592;28;19913;-63
2022/10/08 09:47:03;;;;;;;;;;;;;;;;;;5032115;28;20382;-63
2022/10/08 09:49:32;;;;;;;;;;;;;;;;;;5032678;28;19917;-63
2022/10/08 09:52:00;;;;;;;;;;;;;;;;;;5031440;28;19967;-62
2022/10/08 09:54:27;;;;;;;;;;;;;;;;;;5031455;28;19927;-64
2022/10/08 09:56:55;;;;;;;;;;;;;;;;;;5031439;28;19917;-63
2022/10/08 09:59:22;;;;;;;;;;;;;;;;;;5035430;28;19936;-63
2022/10/08 10:01:48;;;;;;;;;;;;;;;;;;5031153;28;19959;-63
2022/10/08 10:04:30;;;;;;;;;;;;;;;;;;5032394;28;19912;-64
2022/10/08 10:06:56;;;;;;;;;;;;;;;;;;5037855;28;19916;-63
2022/10/08 10:09:25;;;;;;;;;;;;;;;;;;5033673;28;19913;-64
2022/10/08 10:11:56;;;;;;;;;;;;;;;;;;5029338;28;19920;-63
2022/10/08 10:14:24;;;;;;;;;;;;;;;;;;5033465;28;19921;-63
2022/10/08 10:16:57;;;;;;;;;;;;;;;;;;5030399;28;19917;-64
2022/10/08 10:19:24;;;;;;;;;;;;;;;;;;5031630;28;20492;-63
2022/10/08 10:21:54;;;;;;;;;;;;;;;;;;5031414;28;19915;-64
2022/10/08 10:24:19;;;;;;;;;;;;;;;;;;5032008;28;19920;-64
2022/10/08 10:26:45;;;;;;;;;;;;;;;;;;5031097;28;19909;-63
2022/10/08 10:29:14;;;;;;;;;;;;;;;;;;5031689;28;19917;-63
2022/10/08 10:31:45;;;;;;;;;;;;;;;;;;5031153;28;19909;-63
2022/10/08 10:34:21;;;;;;;;;;;;;;;;;;5032067;28;19948;-63
2022/10/08 10:36:53;;;;;;;;;;;;;;;;;;5031555;28;19913;-64
2022/10/08 10:39:36;;;;;;;;;;;;;;;;;;5029195;28;19916;-64
2022/10/08 10:42:07;;;;;;;;;;;;;;;;;;5031012;28;19952;-64
2022/10/08 10:44:41;;;;;;;;;;;;;;;;;;5031677;28;19913;-64
2022/10/08 10:47:06;;;;;;;;;;;;;;;;;;5029136;28;20652;-64
2022/10/08 10:49:34;;;;;;;;;;;;;;;;;;5030991;28;19909;-63
2022/10/08 10:52:18;;;;;;;;;;;;;;;;;;5030462;28;20359;-64
2022/10/08 10:54:49;;;;;;;;;;;;;;;;;;5028568;28;20383;-64
2022/10/08 10:57:21;;;;;;;;;;;;;;;;;;5030522;28;20208;-63
2022/10/08 10:59:49;;;;;;;;;;;;;;;;;;5031916;28;19956;-64
2022/10/08 11:02:15;;;;;;;;;;;;;;;;;;5033441;28;19990;-64
2022/10/08 11:04:47;;;;;;;;;;;;;;;;;;5033210;28;19917;-64
2022/10/08 11:07:45;;;;;;;;;;;;;;;;;;5024898;28;20405;-64
2022/10/08 11:10:30;;;;;;;;;;;;;;;;;;5000828;28;19935;-64
2022/10/08 11:13:06;;;;;;;;;;;;;;;;;;5030261;28;19921;-61
2022/10/08 11:15:31;;;;;;;;;;;;;;;;;;5030227;28;20020;-61
2022/10/08 11:17:57;;;;;;;;;;;;;;;;;;5030490;28;20434;-62
2022/10/08 11:20:45;;;;;;;;;;;;;;;;;;5030717;28;19913;-62
2022/10/08 11:23:29;;;;;;;;;;;;;;;;;;5024705;28;19920;-61
2022/10/08 11:26:12;;;;;;;;;;;;;;;;;;5030117;28;19975;-60
2022/10/08 11:28:43;;;;;;;;;;;;;;;;;;5030225;28;19936;-60
2022/10/08 11:31:31;;;;;;;;;;;;;;;;;;5024969;28;19919;-61
2022/10/08 11:33:57;;;;;;;;;;;;;;;;;;5029552;28;20021;-57
2022/10/08 11:36:28;;;;;;;;;;;;;;;;;;5030483;28;20011;-56
2022/10/08 11:39:14;;;;;;;;;;;;;;;;;;5030382;28;19921;-57
2022/10/08 11:41:47;;;;;;;;;;;;;;;;;;5026588;28;19913;-57
2022/10/08 11:44:12;;;;;;;;;;;;;;;;;;5026751;28;19909;-56
2022/10/08 11:46:38;;;;;;;;;;;;;;;;;;5030391;28;19924;-57
2022/10/08 11:49:24;;;;;;;;;;;;;;;;;;5027717;28;19916;-57
2022/10/08 11:51:52;;;;;;;;;;;;;;;;;;5027822;28;19916;-56
2022/10/08 11:54:20;;;;;;;;;;;;;;;;;;5029032;28;20236;-56
2022/10/08 11:56:47;;;;;;;;;;;;;;;;;;5028295;28;20342;-56
2022/10/08 11:59:15;;;;;;;;;;;;;;;;;;5028435;28;19909;-56
2022/10/08 12:01:48;;;;;;;;;;;;;;;;;;5025950;28;19921;-57
2022/10/08 12:04:18;;;;;;;;;;;;;;;;;;5026771;28;20078;-56
2022/10/08 12:06:45;;;;;;;;;;;;;;;;;;5022483;28;19909;-55
2022/10/08 12:09:20;;;;;;;;;;;;;;;;;;5028214;28;19995;-55
2022/10/08 12:11:46;;;;;;;;;;;;;;;;;;5026200;28;19982;-56
2022/10/08 12:14:12;;;;;;;;;;;;;;;;;;5029881;28;19913;-57
2022/10/08 12:16:46;;;;;;;;;;;;;;;;;;5030090;28;19939;-56
2022/10/08 12:19:30;;;;;;;;;;;;;;;;;;5026287;28;19959;-56
2022/10/08 12:21:55;;;;;;;;;;;;;;;;;;5027885;28;19920;-56
2022/10/08 12:24:36;;;;;;;;;;;;;;;;;;5026424;28;20451;-56
2022/10/08 12:27:16;;;;;;;;;;;;;;;;;;5027179;28;20418;-57
2022/10/08 12:29:53;;;;;;;;;;;;;;;;;;5041267;28;20302;-56
2022/10/08 12:32:19;;;;;;;;;;;;;;;;;;5028116;28;19912;-60
2022/10/08 12:34:44;;;;;;;;;;;;;;;;;;5029749;28;20283;-61
2022/10/08 12:37:13;;;;;;;;;;;;;;;;;;5035213;28;20302;-61
2022/10/08 12:39:39;;;;;;;;;;;;;;;;;;5029704;28;19913;-61
2022/10/08 12:42:14;;;;;;;;;;;;;;;;;;5029148;28;20375;-60
2022/10/08 12:44:39;;;;;;;;;;;;;;;;;;5029613;28;20294;-60
2022/10/08 12:47:13;;;;;;;;;;;;;;;;;;5029211;28;20009;-61
2022/10/08 12:49:43;;;;;;;;;;;;;;;;;;5029487;28;19913;-61
2022/10/08 12:52:16;;;;;;;;;;;;;;;;;;5028905;28;19992;-60
2022/10/08 12:54:52;;;;;;;;;;;;;;;;;;5028425;28;19968;-59
2022/10/08 12:57:30;;;;;;;;;;;;;;;;;;5025967;28;19963;-57
2022/10/08 12:59:57;;;;;;;;;;;;;;;;;;5028921;28;19913;-61
2022/10/08 13:02:27;;;;;;;;;;;;;;;;;;5028765;28;20389;-62
2022/10/08 13:04:52;;;;;;;;;;;;;;;;;;5029224;28;19913;-62
2022/10/08 13:07:24;;;;;;;;;;;;;;;;;;5028864;28;19935;-61
2022/10/08 13:09:52;;;;;;;;;;;;;;;;;;5029525;28;20035;-61
2022/10/08 13:12:17;;;;;;;;;;;;;;;;;;5030792;28;20306;-62
2022/10/08 13:14:43;;;;;;;;;;;;;;;;;;5033143;28;19913;-61
2022/10/08 13:17:25;;;;;;;;;;;;;;;;;;5032947;28;19917;-62
2022/10/08 13:20:01;;;;;;;;;;;;;;;;;;5033779;28;20378;-61
2022/10/08 13:22:29;;;;;;;;;;;;;;;;;;5032404;28;19917;-62
2022/10/08 13:24:54;;;;;;;;;;;;;;;;;;5030228;28;19944;-61
2022/10/08 13:27:24;;;;;;;;;;;;;;;;;;5032367;28;20383;-62
2022/10/08 13:29:50;;;;;;;;;;;;;;;;;;5032283;28;19913;-61
2022/10/08 13:32:20;;;;;;;;;;;;;;;;;;5032087;28;20451;-61
2022/10/08 13:34:47;;;;;;;;;;;;;;;;;;5032793;28;20294;-62
2022/10/08 13:37:22;;;;;;;;;;;;;;;;;;5032290;28;19921;-61
2022/10/08 13:39:58;;;;;;;;;;;;;;;;;;5027849;28;20016;-61
2022/10/08 13:42:35;;;;;;;;;;;;;;;;;;5031728;28;19919;-61
2022/10/08 13:45:02;;;;;;;;;;;;;;;;;;5032715;28;20375;-60
2022/10/08 13:47:27;;;;;;;;;;;;;;;;;;5032837;28;19948;-61
2022/10/08 13:49:59;;;;;;;;;;;;;;;;;;5031854;28;19963;-60
2022/10/08 13:52:24;;;;;;;;;;;;;;;;;;5027585;28;19913;-61
2022/10/08 13:54:52;;;;;;;;;;;;;;;;;;5032092;28;19913;-61
2022/10/08 13:57:17;;;;;;;;;;;;;;;;;;5032501;28;19921;-61
2022/10/08 13:59:42;;;;;;;;;;;;;;;;;;5032539;28;19913;-60
2022/10/08 14:02:10;;;;;;;;;;;;;;;;;;5031504;28;19916;-60
2022/10/08 14:04:35;;;;;;;;;;;;;;;;;;5032239;28;20024;-60
2022/10/08 14:07:01;;;;;;;;;;;;;;;;;;5032585;28;20074;-60
2022/10/08 14:09:27;;;;;;;;;;;;;;;;;;5032147;28;19924;-60
2022/10/08 14:11:58;;;;;;;;;;;;;;;;;;5032395;28;20401;-60
2022/10/08 14:14:24;;;;;;;;;;;;;;;;;;5032179;28;19920;-60
2022/10/08 14:16:50;;;;;;;;;;;;;;;;;;5031524;28;20074;-60
2022/10/08 14:19:17;;;;;;;;;;;;;;;;;;5032439;28;20442;-60
2022/10/08 14:21:42;;;;;;;;;;;;;;;;;;5031409;28;19913;-59
2022/10/08 14:24:09;;;;;;;;;;;;;;;;;;5032198;28;19919;-60
2022/10/08 14:26:34;;;;;;;;;;;;;;;;;;5030994;28;19920;-60
2022/10/08 14:28:59;;;;;;;;;;;;;;;;;;5030392;28;19913;-59
2022/10/08 14:31:26;;;;;;;;;;;;;;;;;;5030735;28;19913;-61
2022/10/08 14:33:51;;;;;;;;;;;;;;;;;;5031748;28;19944;-60
2022/10/08 14:36:18;;;;;;;;;;;;;;;;;;5031383;28;19952;-60
2022/10/08 14:38:43;;;;;;;;;;;;;;;;;;5031407;28;19921;-60
2022/10/08 14:41:09;;;;;;;;;;;;;;;;;;5027113;28;19913;-60
2022/10/08 14:43:34;;;;;;;;;;;;;;;;;;5031375;28;19920;-60
2022/10/08 14:45:59;;;;;;;;;;;;;;;;;;5030815;28;20023;-60
2022/10/08 14:48:25;;;;;;;;;;;;;;;;;;5031426;28;19959;-61
2022/10/08 14:50:50;;;;;;;;;;;;;;;;;;5031743;28;19912;-61
2022/10/08 14:53:15;;;;;;;;;;;;;;;;;;5034353;28;20004;-61
2022/10/08 14:55:40;;;;;;;;;;;;;;;;;;5029730;28;20391;-61
2022/10/08 14:58:06;;;;;;;;;;;;;;;;;;5028581;28;19927;-61
2022/10/08 15:00:31;;;;;;;;;;;;;;;;;;5031709;28;19967;-61
2022/10/08 15:02:56;;;;;;;;;;;;;;;;;;5030853;28;19912;-59
2022/10/08 15:05:22;;;;;;;;;;;;;;;;;;5031259;28;19913;-59
2022/10/08 15:07:47;;;;;;;;;;;;;;;;;;5031104;28;19913;-58
2022/10/08 15:10:12;;;;;;;;;;;;;;;;;;5031405;28;20011;-60
2022/10/08 15:12:38;;;;;;;;;;;;;;;;;;5030249;28;20015;-58
2022/10/08 15:15:03;;;;;;;;;;;;;;;;;;5028051;28;20235;-59
2022/10/08 15:17:28;;;;;;;;;;;;;;;;;;5028479;28;19920;-58
2022/10/08 15:19:55;;;;;;;;;;;;;;;;;;5028589;28;20275;-60
2022/10/08 15:22:20;;;;;;;;;;;;;;;;;;5028813;28;19916;-60
2022/10/08 15:24:46;;;;;;;;;;;;;;;;;;5029761;28;19923;-59
2022/10/08 15:27:11;;;;;;;;;;;;;;;;;;5029675;28;19921;-60
2022/10/08 15:29:36;;;;;;;;;;;;;;;;;;5030152;28;20228;-60
2022/10/08 15:32:01;;;;;;;;;;;;;;;;;;5029302;28;19920;-60
2022/10/08 15:34:27;;;;;;;;;;;;;;;;;;5028963;28;19924;-60
2022/10/08 15:36:53;;;;;;;;;;;;;;;;;;5027618;28;19924;-60
2022/10/08 15:39:18;;;;;;;;;;;;;;;;;;5028560;28;19924;-60
2022/10/08 15:41:45;;;;;;;;;;;;;;;;;;5028166;28;19917;-60
2022/10/08 15:44:13;;;;;;;;;;;;;;;;;;5030447;28;20401;-60
2022/10/08 15:46:38;;;;;;;;;;;;;;;;;;5029894;28;20015;-60
2022/10/08 15:49:04;;;;;;;;;;;;;;;;;;5030468;28;19999;-60
2022/10/08 15:51:30;;;;;;;;;;;;;;;;;;5029685;28;20290;-60
2022/10/08 15:53:57;;;;;;;;;;;;;;;;;;5030185;28;19909;-60
2022/10/08 15:56:22;;;;;;;;;;;;;;;;;;5029153;28;20608;-60
2022/10/08 15:58:47;;;;;;;;;;;;;;;;;;5029838;28;20183;-56
2022/10/08 16:01:15;;;;;;;;;;;;;;;;;;5028410;28;19955;-56
2022/10/08 16:03:41;;;;;;;;;;;;;;;;;;5029585;28;19999;-56
2022/10/08 16:06:07;;;;;;;;;;;;;;;;;;5028921;28;19920;-56
2022/10/08 16:08:33;;;;;;;;;;;;;;;;;;5034170;28;20370;-59
2022/10/08 16:11:17;;;;;;;;;;;;;;;;;;5031478;28;19913;-60
2022/10/08 16:13:43;;;;;;;;;;;;;;;;;;5029672;28;19960;-60
2022/10/08 16:16:08;;;;;;;;;;;;;;;;;;5029812;28;20386;-61
2022/10/08 16:18:34;;;;;;;;;;;;;;;;;;5029843;28;20318;-59
2022/10/08 16:21:01;;;;;;;;;;;;;;;;;;5029790;28;19913;-59
2022/10/08 16:23:26;;;;;;;;;;;;;;;;;;5029275;28;19916;-59
2022/10/08 16:25:52;;;;;;;;;;;;;;;;;;5027538;28;19982;-59
2022/10/08 16:28:17;;;;;;;;;;;;;;;;;;5029754;28;19920;-60
2022/10/08 16:30:42;;;;;;;;;;;;;;;;;;5029662;28;19913;-60
2022/10/08 16:33:07;;;;;;;;;;;;;;;;;;5029229;28;19909;-60
2022/10/08 16:35:34;;;;;;;;;;;;;;;;;;5035913;28;19920;-60
2022/10/08 16:37:59;;;;;;;;;;;;;;;;;;5035212;28;19917;-60
2022/10/08 16:40:25;;;;;;;;;;;;;;;;;;5030870;28;19913;-60
2022/10/08 16:42:52;;;;;;;;;;;;;;;;;;5028077;28;20382;-60
2022/10/08 16:45:17;;;;;;;;;;;;;;;;;;5028081;28;19959;-60
2022/10/08 16:47:42;;;;;;;;;;;;;;;;;;5028817;28;19909;-60
2022/10/08 16:50:08;;;;;;;;;;;;;;;;;;5030771;28;19919;-61
2022/10/08 16:52:33;;;;;;;;;;;;;;;;;;5028957;28;19919;-61